Time;durP1;ratioP1;P1;durP2;ratioP2;P2;SDS_P1;SDS_P2;PMS_P1;PMS_P2;Temp;Humidity;BMP_temperature;BMP_pressure;BME280_temperature;BME280_humidity;BME280_pressure;Samples;Min_cycle;Max_cycle;Signal;HPM_P1;HPM_P2
2023/10/29 00:00:35;;;;;;;9.00;7.57;;;10.20;99.90;;;;;;5022486;28;20134;-85
2023/10/29 00:03:02;;;;;;;8.60;7.50;;;10.30;99.90;;;;;;5053495;28;20057;-85
2023/10/29 00:05:27;;;;;;;7.93;7.13;;;10.30;99.90;;;;;;5019266;28;20084;-85
2023/10/29 00:07:53;;;;;;;11.97;7.90;;;10.30;99.90;;;;;;5019404;28;20149;-85
2023/10/29 00:10:19;;;;;;;8.73;7.23;;;10.30;99.90;;;;;;5025039;28;20045;-86
2023/10/29 00:12:44;;;;;;;10.07;8.83;;;10.30;99.90;;;;;;5017229;28;20045;-85
2023/10/29 00:15:10;;;;;;;11.30;9.33;;;10.30;99.90;;;;;;5029094;28;20044;-88
2023/10/29 00:17:36;;;;;;;12.07;8.80;;;10.30;99.90;;;;;;5040998;28;20052;-85
2023/10/29 00:20:06;;;;;;;12.10;9.38;;;10.40;99.90;;;;;;5045827;28;20349;-86
2023/10/29 00:22:32;;;;;;;10.85;9.68;;;10.40;99.90;;;;;;5050127;28;20511;-85
2023/10/29 00:24:58;;;;;;;14.90;9.68;;;10.40;99.90;;;;;;5024703;28;20044;-85
2023/10/29 00:27:24;;;;;;;12.57;9.47;;;10.30;99.90;;;;;;5029611;28;20162;-85
2023/10/29 00:29:50;;;;;;;12.33;9.17;;;10.30;99.90;;;;;;5023974;28;20369;-85
2023/10/29 00:32:18;;;;;;;10.00;9.00;;;10.30;99.90;;;;;;5060312;28;20041;-86
2023/10/29 00:34:46;;;;;;;10.73;8.85;;;10.30;99.90;;;;;;5039355;28;20090;-85
2023/10/29 00:37:12;;;;;;;10.65;8.73;;;10.40;99.90;;;;;;5035328;28;20056;-85
2023/10/29 00:39:37;;;;;;;9.38;8.40;;;10.40;99.90;;;;;;5043922;28;20072;-85
2023/10/29 00:42:03;;;;;;;12.53;7.83;;;10.40;99.90;;;;;;5063291;28;20048;-85
2023/10/29 00:44:29;;;;;;;11.67;8.70;;;10.40;99.90;;;;;;5046044;28;20048;-85
2023/10/29 00:46:55;;;;;;;12.10;8.30;;;10.30;99.90;;;;;;5047414;28;20298;-85
2023/10/29 00:49:21;;;;;;;11.77;8.73;;;10.40;99.90;;;;;;5020270;28;20040;-86
2023/10/29 00:51:50;;;;;;;10.55;8.75;;;10.40;99.90;;;;;;5026381;28;20298;-86
2023/10/29 00:54:17;;;;;;;10.10;8.23;;;10.40;99.90;;;;;;5062612;28;20045;-89
2023/10/29 00:56:43;;;;;;;13.43;8.88;;;10.40;99.90;;;;;;5043325;28;20083;-85
2023/10/29 00:59:11;;;;;;;10.80;8.05;;;10.50;99.90;;;;;;5008167;28;20558;-89
2023/10/29 01:01:41;;;;;;;13.02;8.93;;;10.40;99.90;;;;;;5052856;28;20064;-86
2023/10/29 01:04:07;;;;;;;9.00;7.88;;;10.50;99.90;;;;;;5045995;28;20044;-86
2023/10/29 01:06:35;;;;;;;9.03;7.63;;;10.50;99.90;;;;;;5052497;28;20076;-86
2023/10/29 01:09:01;;;;;;;8.65;7.60;;;10.60;99.90;;;;;;5053245;28;20118;-86
2023/10/29 01:11:29;;;;;;;10.13;8.30;;;10.60;99.90;;;;;;5035136;28;20484;-86
2023/10/29 01:13:54;;;;;;;10.38;7.32;;;10.60;99.90;;;;;;5022867;28;20052;-86
2023/10/29 01:16:20;;;;;;;8.60;7.70;;;10.70;99.90;;;;;;5038601;28;20045;-93
2023/10/29 01:18:47;;;;;;;7.87;6.60;;;10.50;99.90;;;;;;5039200;28;20511;-86
2023/10/29 01:21:12;;;;;;;;;;;10.70;99.90;;;;;;5031219;28;20106;-86
2023/10/29 01:23:38;;;;;;;9.45;7.35;;;10.80;99.90;;;;;;5054879;28;19928;-86
2023/10/29 01:26:04;;;;;;;9.13;8.02;;;10.80;99.90;;;;;;5039315;28;20114;-86
2023/10/29 01:28:31;;;;;;;10.07;8.67;;;10.80;99.90;;;;;;5022767;28;20044;-86
2023/10/29 01:30:58;;;;;;;10.80;8.60;;;10.80;99.90;;;;;;5039023;28;20049;-86
2023/10/29 01:33:24;;;;;;;10.80;8.65;;;10.80;99.90;;;;;;5022544;28;20053;-87
2023/10/29 01:35:49;;;;;;;9.60;8.63;;;10.80;99.90;;;;;;5039137;28;20091;-86
2023/10/29 01:38:15;;;;;;;13.05;9.23;;;10.90;99.90;;;;;;5039217;28;20053;-86
2023/10/29 01:40:41;;;;;;;13.20;8.60;;;10.90;99.90;;;;;;5055348;28;20400;-86
2023/10/29 01:43:07;;;;;;;12.53;8.23;;;11.00;99.90;;;;;;5038791;28;20045;-86
2023/10/29 01:45:32;;;;;;;8.37;7.50;;;11.00;99.90;;;;;;5038243;28;20045;-86
2023/10/29 01:47:58;;;;;;;9.10;8.10;;;11.00;99.90;;;;;;5056498;28;20049;-87
2023/10/29 01:50:24;;;;;;;7.80;6.87;;;11.60;99.90;;;;;;5038718;28;20480;-87
2023/10/29 01:52:53;;;;;;;8.70;7.47;;;11.10;99.90;;;;;;5006086;28;20049;-86
2023/10/29 01:55:19;;;;;;;9.88;8.07;;;11.10;99.90;;;;;;5055868;28;20052;-85
2023/10/29 01:57:45;;;;;;;12.47;7.70;;;11.10;99.90;;;;;;5037664;28;20033;-86
2023/10/29 02:00:11;;;;;;;12.70;8.13;;;11.20;99.90;;;;;;5044183;28;20092;-86
2023/10/29 02:02:37;;;;;;;7.70;6.78;;;11.20;99.90;;;;;;5051356;28;20102;-87
2023/10/29 02:05:04;;;;;;;7.77;6.70;;;11.10;99.90;;;;;;5032604;28;20056;-88
2023/10/29 02:07:30;;;;;;;7.47;6.40;;;11.20;99.90;;;;;;5016576;28;20043;-87
2023/10/29 02:09:56;;;;;;;7.80;6.28;;;11.20;99.90;;;;;;5033771;28;20040;-86
2023/10/29 02:12:22;;;;;;;8.00;5.38;;;11.30;99.90;;;;;;5032965;28;20044;-86
2023/10/29 02:14:48;;;;;;;6.07;5.00;;;11.20;99.90;;;;;;5040412;28;20128;-86
2023/10/29 02:17:13;;;;;;;6.27;5.13;;;11.20;99.90;;;;;;5037903;28;20303;-86
2023/10/29 02:19:39;;;;;;;6.30;4.63;;;11.30;99.90;;;;;;5005460;28;20060;-86
2023/10/29 02:22:07;;;;;;;7.40;4.67;;;11.40;99.90;;;;;;5037869;28;20075;-87
2023/10/29 02:24:33;;;;;;;6.57;4.22;;;11.20;99.90;;;;;;5021506;28;20299;-87
2023/10/29 02:26:59;;;;;;;5.80;4.47;;;11.40;99.90;;;;;;5021315;28;20048;-87
2023/10/29 02:29:30;;;;;;;6.20;4.03;;;11.30;99.90;;;;;;5030236;28;20131;-87
2023/10/29 02:31:58;;;;;;;4.82;4.18;;;11.80;99.90;;;;;;5043656;28;20102;-86
2023/10/29 02:34:24;;;;;;;8.48;4.43;;;11.30;99.90;;;;;;5023988;28;20499;-87
2023/10/29 02:36:55;;;;;;;8.70;3.73;;;11.40;99.90;;;;;;5022298;28;20045;-87
2023/10/29 02:39:21;;;;;;;7.28;4.13;;;11.30;99.90;;;;;;5040659;28;20053;-87
2023/10/29 02:41:46;;;;;;;5.23;3.63;;;11.30;99.90;;;;;;5042779;28;20131;-87
2023/10/29 02:44:12;;;;;;;5.03;3.60;;;11.30;99.90;;;;;;5049821;28;20348;-87
2023/10/29 02:46:38;;;;;;;6.30;3.17;;;11.30;99.90;;;;;;5035609;28;20416;-87
2023/10/29 02:49:06;;;;;;;6.33;3.40;;;10.80;99.90;;;;;;5039279;28;20127;-86
2023/10/29 02:51:32;;;;;;;3.83;3.42;;;11.30;99.90;;;;;;5049071;28;20299;-87
2023/10/29 02:53:58;;;;;;;6.63;3.35;;;11.40;99.90;;;;;;5037640;28;20443;-86
2023/10/29 02:56:23;;;;;;;4.87;3.60;;;11.40;99.90;;;;;;5009205;28;20041;-86
2023/10/29 02:58:49;;;;;;;4.37;3.00;;;11.40;99.90;;;;;;5064139;28;20048;-86
2023/10/29 03:01:15;;;;;;;5.17;3.23;;;11.40;99.90;;;;;;5028958;28;20349;-86
2023/10/29 03:03:43;;;;;;;4.78;3.45;;;11.40;99.90;;;;;;5045141;28;20068;-87
2023/10/29 03:06:11;;;;;;;4.88;2.90;;;11.40;99.90;;;;;;5037313;28;20103;-86
2023/10/29 03:08:39;;;;;;;4.45;2.20;;;11.30;99.90;;;;;;5020738;28;20057;-87
2023/10/29 03:11:06;;;;;;;2.78;2.38;;;12.10;99.90;;;;;;5020527;28;20041;-85
2023/10/29 03:13:31;;;;;;;2.88;2.50;;;11.40;99.90;;;;;;5039402;28;20036;-86
2023/10/29 03:15:57;;;;;;;3.70;2.40;;;10.60;99.90;;;;;;5008670;28;20049;-86
2023/10/29 03:18:23;;;;;;;4.60;2.73;;;11.50;99.90;;;;;;5057459;28;20044;-88
2023/10/29 03:20:49;;;;;;;3.83;2.50;;;11.60;99.90;;;;;;5060269;28;20290;-86
2023/10/29 03:23:15;;;;;;;2.85;2.60;;;11.60;99.90;;;;;;5032673;28;20508;-86
2023/10/29 03:25:44;;;;;;;5.32;2.53;;;11.60;99.90;;;;;;5037751;28;20063;-86
2023/10/29 03:28:13;;;;;;;3.25;2.53;;;11.60;99.90;;;;;;5045627;28;20056;-86
2023/10/29 03:30:39;;;;;;;3.63;2.57;;;11.60;99.90;;;;;;5055002;28;20487;-90
2023/10/29 03:33:05;;;;;;;3.97;2.47;;;11.60;99.90;;;;;;5043223;28;20124;-86
2023/10/29 03:35:33;;;;;;;3.05;2.10;;;11.70;99.90;;;;;;5052670;28;20044;-86
2023/10/29 03:37:58;;;;;;;3.75;2.28;;;11.70;99.90;;;;;;5026899;28;20052;-86
2023/10/29 03:40:24;;;;;;;4.70;2.20;;;11.70;99.90;;;;;;5046909;28;20106;-86
2023/10/29 03:42:53;;;;;;;2.33;2.03;;;11.70;99.90;;;;;;5044955;28;20037;-86
2023/10/29 03:45:24;;;;;;;2.38;2.17;;;11.70;99.90;;;;;;5067390;28;20127;-86
2023/10/29 03:47:49;;;;;;;4.53;1.95;;;11.70;99.90;;;;;;5056181;28;20131;-86
2023/10/29 03:50:17;;;;;;;3.40;2.13;;;11.70;99.90;;;;;;5039880;28;20123;-86
2023/10/29 03:52:43;;;;;;;3.90;2.00;;;11.70;99.90;;;;;;5055638;28;20051;-91
2023/10/29 03:55:09;;;;;;;4.93;2.38;;;11.70;99.90;;;;;;5039764;28;20036;-86
2023/10/29 03:57:34;;;;;;;5.57;1.80;;;11.70;99.90;;;;;;5056050;28;20040;-86
2023/10/29 04:00:00;;;;;;;2.27;2.07;;;11.80;99.90;;;;;;5039198;28;20290;-85
2023/10/29 04:02:26;;;;;;;4.73;2.60;;;11.80;99.90;;;;;;5039046;28;20075;-86
2023/10/29 04:04:52;;;;;;;3.22;1.67;;;11.80;99.90;;;;;;5073832;28;20063;-87
2023/10/29 04:07:17;;;;;;;2.77;1.93;;;11.70;99.90;;;;;;5050026;28;20048;-86
2023/10/29 04:09:46;;;;;;;3.37;2.00;;;11.80;99.90;;;;;;5019698;28;20558;-89
2023/10/29 04:12:12;;;;;;;4.30;2.28;;;11.80;99.90;;;;;;5036165;28;20488;-86
2023/10/29 04:14:39;;;;;;;5.27;2.27;;;11.80;99.90;;;;;;5019845;28;20163;-86
2023/10/29 04:17:06;;;;;;;2.72;1.65;;;11.90;99.90;;;;;;5035859;28;20385;-86
2023/10/29 04:19:32;;;;;;;3.08;1.75;;;11.90;99.90;;;;;;5035853;28;20052;-86
2023/10/29 04:21:58;;;;;;;2.60;1.80;;;12.00;99.90;;;;;;5058539;28;20047;-89
2023/10/29 04:24:26;;;;;;;2.55;1.67;;;11.90;99.90;;;;;;5052425;28;20105;-86
2023/10/29 04:26:52;;;;;;;2.45;2.13;;;11.90;99.90;;;;;;5042093;28;20083;-86
2023/10/29 04:29:21;;;;;;;4.47;1.67;;;12.00;99.90;;;;;;5048668;28;20084;-86
2023/10/29 04:31:47;;;;;;;4.40;1.50;;;12.00;99.90;;;;;;5047319;28;20059;-92
2023/10/29 04:34:14;;;;;;;2.30;1.80;;;12.00;99.90;;;;;;5040142;28;20447;-86
2023/10/29 04:36:42;;;;;;;1.95;1.35;;;12.10;99.90;;;;;;5035305;28;20048;-86
2023/10/29 04:39:08;;;;;;;3.63;1.90;;;12.00;99.90;;;;;;5036754;28;20032;-88
2023/10/29 04:41:34;;;;;;;4.90;1.67;;;12.10;99.90;;;;;;5035031;28;20055;-86
2023/10/29 04:44:00;;;;;;;3.77;1.70;;;12.00;99.90;;;;;;5043157;28;20045;-87
2023/10/29 04:46:25;;;;;;;3.70;1.63;;;12.50;99.90;;;;;;5028121;28;20080;-86
2023/10/29 04:48:51;;;;;;;1.80;1.53;;;12.10;99.90;;;;;;5042913;28;20475;-87
2023/10/29 04:51:20;;;;;;;3.00;1.63;;;12.20;99.90;;;;;;5034795;28;20430;-87
2023/10/29 04:53:45;;;;;;;4.95;1.58;;;12.20;99.90;;;;;;5046063;28;20077;-85
2023/10/29 04:56:11;;;;;;;5.07;1.73;;;12.10;99.90;;;;;;5040540;28;20072;-86
2023/10/29 04:58:39;;;;;;;3.73;2.23;;;12.10;99.90;;;;;;5038211;28;20048;-86
2023/10/29 05:01:05;;;;;;;3.15;1.60;;;12.00;99.90;;;;;;5060578;28;20049;-86
2023/10/29 05:03:30;;;;;;;4.00;1.30;;;12.00;99.90;;;;;;5039303;28;20048;-86
2023/10/29 05:05:56;;;;;;;9.87;1.83;;;11.90;99.90;;;;;;5040206;28;20045;-86
2023/10/29 05:08:22;;;;;;;1.43;0.90;;;11.90;99.90;;;;;;5066754;28;20048;-86
2023/10/29 05:10:48;;;;;;;1.93;1.10;;;11.80;99.90;;;;;;5043241;28;20044;-85
2023/10/29 05:13:13;;;;;;;1.20;1.00;;;11.70;99.90;;;;;;5072030;28;20422;-85
2023/10/29 05:15:47;;;;;;;1.50;1.20;;;11.70;99.90;;;;;;5042102;28;20112;-85
2023/10/29 05:18:13;;;;;;;1.10;1.00;;;11.60;99.90;;;;;;5051091;28;20053;-86
2023/10/29 05:20:39;;;;;;;2.60;2.00;;;11.70;99.90;;;;;;5059270;28;20090;-86
2023/10/29 05:23:05;;;;;;;2.70;1.27;;;11.70;99.90;;;;;;5052391;28;20041;-86
2023/10/29 05:25:31;;;;;;;5.32;1.52;;;11.80;99.90;;;;;;5049529;28;20650;-82
2023/10/29 05:27:56;;;;;;;3.13;1.30;;;11.80;99.90;;;;;;5029859;28;20056;-84
2023/10/29 05:30:23;;;;;;;3.60;1.43;;;11.70;99.90;;;;;;5044337;28;20066;-84
2023/10/29 05:32:49;;;;;;;1.83;1.30;;;11.70;99.90;;;;;;5034736;28;20056;-84
2023/10/29 05:35:15;;;;;;;3.00;1.48;;;11.80;99.90;;;;;;5050005;28;20101;-85
2023/10/29 05:37:42;;;;;;;5.18;1.15;;;11.80;99.90;;;;;;5033265;28;20102;-84
2023/10/29 05:40:09;;;;;;;3.45;1.40;;;11.80;99.90;;;;;;5026886;28;20111;-84
2023/10/29 05:42:35;;;;;;;3.92;1.27;;;11.90;99.90;;;;;;5048269;28;20514;-85
2023/10/29 05:45:02;;;;;;;2.92;1.15;;;11.10;99.90;;;;;;5046098;28;20044;-87
2023/10/29 05:47:36;;;;;;;2.20;1.80;;;11.90;99.90;;;;;;5032092;28;20044;-90
2023/10/29 05:50:06;;;;;;;3.50;1.02;;;11.90;99.90;;;;;;5048310;28;20040;-91
2023/10/29 05:52:32;;;;;;;2.28;1.08;;;12.00;99.90;;;;;;5031151;28;20044;-88
2023/10/29 05:55:00;;;;;;;4.28;1.23;;;12.00;99.90;;;;;;5034251;28;20418;-92
2023/10/29 05:57:28;;;;;;;1.85;1.33;;;11.90;99.90;;;;;;5022227;28;20119;-89
2023/10/29 05:59:54;;;;;;;2.40;0.90;;;12.00;99.90;;;;;;5043035;28;20076;-88
2023/10/29 06:02:20;;;;;;;4.23;1.27;;;12.00;99.90;;;;;;5040203;28;20076;-94
2023/10/29 06:04:46;;;;;;;3.05;1.20;;;12.00;99.90;;;;;;5033043;28;20131;-87
2023/10/29 06:07:13;;;;;;;4.63;1.65;;;12.10;99.90;;;;;;5048387;28;20040;-87
2023/10/29 06:09:39;;;;;;;;;;;12.10;99.90;;;;;;5029423;28;20492;-86
2023/10/29 06:12:08;;;;;;;1.05;0.90;;;12.00;99.90;;;;;;5025589;28;19928;-85
2023/10/29 06:14:34;;;;;;;2.97;0.73;;;12.10;99.90;;;;;;5038665;28;20519;-85
2023/10/29 06:17:00;;;;;;;1.27;0.95;;;12.00;99.90;;;;;;5037944;28;20090;-85
2023/10/29 06:19:33;;;;;;;3.42;1.00;;;12.00;99.90;;;;;;5037877;28;20053;-85
2023/10/29 06:21:59;;;;;;;1.70;0.88;;;12.10;99.90;;;;;;5038109;28;20064;-85
2023/10/29 06:24:25;;;;;;;2.93;0.93;;;12.10;99.90;;;;;;5037520;28;20037;-85
2023/10/29 06:26:51;;;;;;;1.27;0.80;;;12.10;99.90;;;;;;5037734;28;20045;-85
2023/10/29 06:29:16;;;;;;;1.90;1.13;;;12.10;99.90;;;;;;5037532;28;20435;-86
2023/10/29 06:31:42;;;;;;;3.70;1.00;;;12.10;99.90;;;;;;5037179;28;20102;-86
2023/10/29 06:34:10;;;;;;;3.10;2.25;;;12.10;99.90;;;;;;5037878;28;20045;-86
2023/10/29 06:36:38;;;;;;;4.55;1.65;;;12.10;99.90;;;;;;5037544;28;20037;-86
2023/10/29 06:39:04;;;;;;;2.13;0.88;;;12.20;99.90;;;;;;5037424;28;20098;-88
2023/10/29 06:41:30;;;;;;;1.87;0.90;;;12.10;99.90;;;;;;5037487;28;20086;-86
2023/10/29 06:43:56;;;;;;;0.93;0.70;;;12.20;99.90;;;;;;5037576;28;20286;-86
2023/10/29 06:46:21;;;;;;;5.37;1.00;;;12.20;99.90;;;;;;5037202;28;20048;-86
2023/10/29 06:48:47;;;;;;;2.83;1.07;;;12.20;99.90;;;;;;5054039;28;20102;-86
2023/10/29 06:51:18;;;;;;;2.47;1.03;;;12.20;99.90;;;;;;5036959;28;20044;-86
2023/10/29 06:53:45;;;;;;;1.85;0.80;;;12.20;99.90;;;;;;5037407;28;20102;-86
2023/10/29 06:56:11;;;;;;;;;;;12.20;99.90;;;;;;5054052;28;20049;-86
2023/10/29 06:58:38;;;;;;;1.50;0.85;;;12.20;99.90;;;;;;5036687;28;19920;-85
2023/10/29 07:01:11;;;;;;;3.97;0.82;;;12.20;99.90;;;;;;5053580;28;20080;-85
2023/10/29 07:03:42;;;;;;;2.67;0.75;;;12.20;99.90;;;;;;5020821;28;20071;-86
2023/10/29 07:06:14;;;;;;;2.45;0.82;;;11.60;99.90;;;;;;5020676;28;20400;-87
2023/10/29 07:08:40;;;;;;;3.25;0.93;;;12.20;99.90;;;;;;5037443;28;20396;-86
2023/10/29 07:11:06;;;;;;;1.85;0.85;;;12.30;99.90;;;;;;5036865;28;20041;-86
2023/10/29 07:13:32;;;;;;;4.68;0.90;;;12.30;99.90;;;;;;5053195;28;20048;-86
2023/10/29 07:16:02;;;;;;;;;;;12.30;99.90;;;;;;5020974;28;20392;-86
2023/10/29 07:18:31;;;;;;;5.20;2.75;;;12.30;99.90;;;;;;5020239;28;20383;-86
2023/10/29 07:20:59;;;;;;;4.60;2.05;;;12.40;99.90;;;;;;5053576;28;20055;-86
2023/10/29 07:23:26;;;;;;;1.63;0.90;;;11.70;99.90;;;;;;5036781;28;20051;-86
2023/10/29 07:25:52;;;;;;;1.65;1.00;;;12.40;99.90;;;;;;5036534;28;20496;-86
2023/10/29 07:28:18;;;;;;;2.10;0.93;;;12.50;99.90;;;;;;5020095;28;20140;-86
2023/10/29 07:30:44;;;;;;;2.38;0.90;;;12.60;99.90;;;;;;5036452;28;20544;-86
2023/10/29 07:33:10;;;;;;;3.15;1.20;;;12.70;99.90;;;;;;5036704;28;20132;-86
2023/10/29 07:35:39;;;;;;;2.55;0.90;;;12.70;99.90;;;;;;5019625;28;20527;-86
2023/10/29 07:38:07;;;;;;;1.52;0.85;;;12.70;99.90;;;;;;5036292;28;20041;-86
2023/10/29 07:40:36;;;;;;;2.00;1.45;;;12.60;99.90;;;;;;5019598;28;20049;-86
2023/10/29 07:43:03;;;;;;;1.75;0.90;;;12.40;99.90;;;;;;5036437;28;20137;-86
2023/10/29 07:45:29;;;;;;;1.75;1.15;;;12.50;99.90;;;;;;5035938;28;20457;-86
2023/10/29 07:47:55;;;;;;;1.50;0.77;;;12.50;99.90;;;;;;5019874;28;20135;-86
2023/10/29 07:50:21;;;;;;;2.10;1.10;;;12.50;99.90;;;;;;5035945;28;20443;-86
2023/10/29 07:52:47;;;;;;;5.22;1.15;;;12.40;99.90;;;;;;5035961;28;20067;-86
2023/10/29 07:55:13;;;;;;;2.83;1.00;;;12.40;99.90;;;;;;5053655;28;20132;-86
2023/10/29 07:57:39;;;;;;;4.15;1.20;;;12.40;99.90;;;;;;5036037;28;20063;-86
2023/10/29 08:00:09;;;;;;;2.20;1.27;;;12.50;99.90;;;;;;5036122;28;20047;-86
2023/10/29 08:02:35;;;;;;;6.88;1.17;;;12.50;99.90;;;;;;5019020;28;20071;-86
2023/10/29 08:05:01;;;;;;;1.20;1.10;;;12.60;99.90;;;;;;5019534;28;20507;-86
2023/10/29 08:07:29;;;;;;;5.13;1.27;;;12.60;99.90;;;;;;5035821;28;20074;-86
2023/10/29 08:09:58;;;;;;;6.47;1.43;;;12.60;99.90;;;;;;5019485;28;20139;-86
2023/10/29 08:12:25;;;;;;;1.50;0.95;;;12.60;98.90;;;;;;5035657;28;20076;-86
2023/10/29 08:14:51;;;;;;;2.00;1.13;;;12.60;99.90;;;;;;5036111;28;20135;-85
2023/10/29 08:17:17;;;;;;;3.60;1.33;;;12.60;99.90;;;;;;5052247;28;20222;-95
2023/10/29 08:19:46;;;;;;;6.82;1.95;;;12.50;99.90;;;;;;5035648;28;20137;-86
2023/10/29 08:22:13;;;;;;;4.60;0.90;;;12.60;99.90;;;;;;5018618;28;20056;-86
2023/10/29 08:24:39;;;;;;;2.78;1.17;;;12.60;99.90;;;;;;5019117;28;20067;-86
2023/10/29 08:27:08;;;;;;;3.17;1.45;;;12.60;99.90;;;;;;5019331;28;20431;-86
2023/10/29 08:29:39;;;;;;;3.92;1.05;;;12.70;98.20;;;;;;5018717;28;20067;-86
2023/10/29 08:32:08;;;;;;;2.55;0.77;;;12.70;99.90;;;;;;5035465;28;20048;-86
2023/10/29 08:34:34;;;;;;;4.60;1.33;;;12.70;99.90;;;;;;5035381;28;20099;-86
2023/10/29 08:36:59;;;;;;;2.03;0.83;;;12.70;99.90;;;;;;5019183;28;20060;-86
2023/10/29 08:39:25;;;;;;;3.30;1.23;;;12.70;98.70;;;;;;5035112;28;20283;-86
2023/10/29 08:41:51;;;;;;;9.27;1.27;;;12.80;99.90;;;;;;5035804;28;20049;-86
2023/10/29 08:44:20;;;;;;;2.15;1.13;;;12.80;99.90;;;;;;5035261;28;20114;-86
2023/10/29 08:46:46;;;;;;;2.33;1.20;;;12.80;99.90;;;;;;5035529;28;20396;-86
2023/10/29 08:49:12;;;;;;;;;;;12.10;99.90;;;;;;5035593;28;20078;-86
2023/10/29 08:51:38;;;;;;;4.57;1.13;;;12.80;58.30;;;;;;5034840;28;20419;-86
2023/10/29 08:54:04;;;;;;;4.68;0.98;;;12.90;99.00;;;;;;5035493;28;20484;-86
2023/10/29 08:56:34;;;;;;;3.85;0.95;;;13.00;99.90;;;;;;5018619;28;20064;-86
2023/10/29 08:59:05;;;;;;;3.22;1.15;;;13.10;99.90;;;;;;5035166;28;20048;-86
2023/10/29 09:01:32;;;;;;;4.07;1.08;;;13.10;97.70;;;;;;5052898;28;20059;-86
2023/10/29 09:03:59;;;;;;;1.83;0.60;;;13.10;99.70;;;;;;5019032;28;20048;-86
2023/10/29 09:06:25;;;;;;;2.33;1.10;;;13.10;98.00;;;;;;5035371;28;20492;-86
2023/10/29 09:08:51;;;;;;;5.60;1.23;;;12.30;96.00;;;;;;5018934;28;20063;-86
2023/10/29 09:11:17;;;;;;;3.05;1.30;;;13.10;95.20;;;;;;5034789;28;20049;-86
2023/10/29 09:13:43;;;;;;;6.82;2.15;;;13.20;95.80;;;;;;5018322;28;20562;-86
2023/10/29 09:16:09;;;;;;;4.10;1.00;;;13.20;94.40;;;;;;5018907;28;20142;-86
2023/10/29 09:18:36;;;;;;;2.95;1.20;;;12.80;92.60;;;;;;5034878;28;20055;-86
2023/10/29 09:21:02;;;;;;;4.28;1.15;;;13.20;94.40;;;;;;5018292;28;20047;-86
2023/10/29 09:23:29;;;;;;;;;;;13.30;93.40;;;;;;5035465;28;20128;-87
2023/10/29 09:25:57;;;;;;;2.20;1.17;;;13.30;51.20;;;;;;5035171;28;20033;-86
2023/10/29 09:28:23;;;;;;;10.20;1.42;;;13.30;93.20;;;;;;5035203;28;20088;-86
2023/10/29 09:30:49;;;;;;;3.30;1.80;;;13.30;90.50;;;;;;5034812;28;20146;-85
2023/10/29 09:33:17;;;;;;;2.72;1.35;;;13.30;92.00;;;;;;5036946;28;20280;-85
2023/10/29 09:35:43;;;;;;;6.03;2.25;;;13.00;90.10;;;;;;5038838;28;20110;-86
2023/10/29 09:38:09;;;;;;;3.78;1.20;;;13.50;93.30;;;;;;5022992;28;20126;-86
2023/10/29 09:40:38;;;;;;;3.65;1.20;;;13.50;91.60;;;;;;5038391;28;20045;-86
2023/10/29 09:43:08;;;;;;;3.83;1.23;;;13.70;83.90;;;;;;5039031;28;20110;-86
2023/10/29 09:45:38;;;;;;;3.50;1.65;;;13.70;88.40;;;;;;5038917;28;20079;-87
2023/10/29 09:48:07;;;;;;;2.47;1.20;;;13.60;89.40;;;;;;5022673;28;20048;-86
2023/10/29 09:50:35;;;;;;;2.92;1.30;;;13.60;87.00;;;;;;5038572;28;20048;-87
2023/10/29 09:53:03;;;;;;;4.63;1.88;;;13.60;85.50;;;;;;5022279;28;20086;-86
2023/10/29 09:55:33;;;;;;;4.65;1.55;;;14.00;90.10;;;;;;5038629;28;20045;-86
2023/10/29 09:57:59;;;;;;;3.35;1.25;;;13.50;83.90;;;;;;5038233;28;20052;-86
2023/10/29 10:00:25;;;;;;;7.38;1.60;;;13.60;87.20;;;;;;5038288;28;20033;-87
2023/10/29 10:03:08;;;;;;;7.75;2.67;;;13.10;89.00;;;;;;5038505;28;20052;-86
2023/10/29 10:05:35;;;;;;;4.30;1.70;;;13.70;77.80;;;;;;5054908;28;20056;-86
2023/10/29 10:08:01;;;;;;;5.13;1.40;;;13.80;84.40;;;;;;5038499;28;20040;-86
2023/10/29 10:10:41;;;;;;;5.28;1.45;;;13.90;83.80;;;;;;5054908;28;20090;-86
2023/10/29 10:13:12;;;;;;;5.28;1.73;;;14.10;75.50;;;;;;5056086;28;20170;-86
2023/10/29 10:15:41;;;;;;;8.63;2.00;;;14.10;79.00;;;;;;5038496;28;20412;-87
2023/10/29 10:18:11;;;;;;;6.28;1.90;;;14.30;71.00;;;;;;5038240;28;20516;-86
2023/10/29 10:20:40;;;;;;;3.53;1.30;;;14.40;64.70;;;;;;5038043;28;20097;-86
2023/10/29 10:23:11;;;;;;;4.17;1.50;;;14.50;61.10;;;;;;5021399;28;20041;-86
2023/10/29 10:25:40;;;;;;;3.72;1.73;;;14.70;45.40;;;;;;5021751;28;20295;-87
2023/10/29 10:28:06;;;;;;;3.47;1.23;;;15.00;55.70;;;;;;5037738;28;20052;-86
2023/10/29 10:30:37;;;;;;;;;;;15.00;46.30;;;;;;5021994;28;20095;-86
2023/10/29 10:33:19;;;;;;;3.88;1.50;;;14.20;1.00;;;;;;5021560;28;20334;-86
2023/10/29 10:35:51;;;;;;;5.78;1.65;;;14.60;24.70;;;;;;5037444;28;20053;-87
2023/10/29 10:38:24;;;;;;;6.63;2.08;;;14.50;47.30;;;;;;5021295;28;20127;-86
2023/10/29 10:40:58;;;;;;;3.83;1.33;;;14.20;43.40;;;;;;5037357;28;20091;-85
2023/10/29 10:43:26;;;;;;;6.13;2.08;;;14.10;35.30;;;;;;5037374;28;20499;-85
2023/10/29 10:45:54;;;;;;;5.97;1.80;;;14.00;54.70;;;;;;5037257;28;20045;-85
2023/10/29 10:48:20;;;;;;;5.15;1.80;;;13.90;54.80;;;;;;5055079;28;20045;-84
2023/10/29 10:50:46;;;;;;;3.53;1.70;;;13.90;56.30;;;;;;5020624;28;20041;-84
2023/10/29 10:53:18;;;;;;;4.38;1.40;;;13.90;56.80;;;;;;5020979;28;20041;-85
2023/10/29 10:55:46;;;;;;;3.90;1.60;;;13.90;41.40;;;;;;5037257;28;20091;-85
2023/10/29 10:58:22;;;;;;;5.72;1.88;;;14.00;56.40;;;;;;5037638;28;20128;-85
2023/10/29 11:00:49;;;;;;;3.53;2.05;;;14.10;36.90;;;;;;5036289;28;20060;-85
2023/10/29 11:03:17;;;;;;;3.35;1.50;;;14.20;49.60;;;;;;5037328;28;20049;-85
2023/10/29 11:05:43;;;;;;;6.05;2.38;;;14.10;47.00;;;;;;5020746;28;20148;-85
2023/10/29 11:08:09;;;;;;;5.38;1.83;;;14.00;48.50;;;;;;5020487;28;20507;-86
2023/10/29 11:10:37;;;;;;;7.30;2.88;;;14.00;50.00;;;;;;5020508;28;20048;-85
2023/10/29 11:13:22;;;;;;;6.53;2.58;;;14.00;51.30;;;;;;5036962;28;20139;-86
2023/10/29 11:15:49;;;;;;;6.88;2.42;;;14.00;16.70;;;;;;5037285;28;20514;-86
2023/10/29 11:18:26;;;;;;;4.18;1.83;;;14.00;51.90;;;;;;5021167;28;20045;-85
2023/10/29 11:20:52;;;;;;;5.47;2.40;;;14.10;52.70;;;;;;5020036;28;20500;-86
2023/10/29 11:23:38;;;;;;;9.95;2.63;;;14.40;49.10;;;;;;5019968;28;20048;-86
2023/10/29 11:26:21;;;;;;;7.80;2.30;;;14.70;27.70;;;;;;5036281;28;20053;-86
2023/10/29 11:28:54;;;;;;;6.32;2.05;;;15.00;1.00;;;;;;5037154;28;20081;-87
2023/10/29 11:31:21;;;;;;;7.53;2.20;;;15.30;26.80;;;;;;5053394;28;20569;-86
2023/10/29 11:34:07;;;;;;;7.22;3.30;;;15.40;31.80;;;;;;5020457;28;20063;-87
2023/10/29 11:36:38;;;;;;;6.18;1.63;;;15.60;28.20;;;;;;5020336;28;20415;-86
2023/10/29 11:39:16;;;;;;;4.80;1.65;;;15.60;18.70;;;;;;5020164;28;20408;-86
2023/10/29 11:41:43;;;;;;;5.20;1.67;;;15.40;1.00;;;;;;5020289;28;20114;-86
2023/10/29 11:44:20;;;;;;;5.50;1.90;;;15.20;12.70;;;;;;5037655;28;20045;-86
2023/10/29 11:47:06;;;;;;;5.38;1.70;;;15.00;1.00;;;;;;5036349;28;20558;-86
2023/10/29 11:49:48;;;;;;;8.15;1.75;;;14.90;1.00;;;;;;5036466;28;20569;-86
2023/10/29 11:52:14;;;;;;;9.77;2.88;;;14.70;1.20;;;;;;5019520;28;20132;-86
2023/10/29 11:54:40;;;;;;;4.70;1.45;;;15.00;14.90;;;;;;5036186;28;20136;-86
2023/10/29 11:57:09;;;;;;;7.45;2.08;;;14.40;14.60;;;;;;5035346;28;20041;-86
2023/10/29 11:59:52;;;;;;;7.88;1.75;;;14.30;1.00;;;;;;5020080;28;20052;-86
2023/10/29 12:02:18;;;;;;;4.43;1.67;;;14.30;18.30;;;;;;5036190;28;20064;-86
2023/10/29 12:04:46;;;;;;;6.75;2.10;;;14.20;19.30;;;;;;5020137;28;20053;-85
2023/10/29 12:07:24;;;;;;;5.82;2.00;;;14.00;17.90;;;;;;5019928;28;20045;-85
2023/10/29 12:10:08;;;;;;;7.22;1.77;;;14.00;3.70;;;;;;5036434;28;20045;-84
2023/10/29 12:12:34;;;;;;;4.40;1.52;;;14.00;14.60;;;;;;5019873;28;20066;-86
2023/10/29 12:15:01;;;;;;;4.93;1.50;;;13.70;20.40;;;;;;5035624;28;20488;-86
2023/10/29 12:17:28;;;;;;;6.75;2.08;;;13.90;11.60;;;;;;5036483;28;20045;-86
2023/10/29 12:19:54;;;;;;;;;;;13.90;14.90;;;;;;5020752;28;20400;-86
2023/10/29 12:26:09;;;;;;;4.20;1.45;;;13.90;1.00;;;;;;5053568;28;20031;-86
2023/10/29 12:28:36;;;;;;;4.07;2.03;;;13.90;10.70;;;;;;5036109;28;20048;-85
2023/10/29 12:31:03;;;;;;;5.63;1.35;;;13.90;23.90;;;;;;5019330;28;20480;-86
2023/10/29 12:33:33;;;;;;;4.03;1.50;;;13.90;18.70;;;;;;5036122;28;20080;-86
2023/10/29 12:36:01;;;;;;;4.50;2.42;;;13.90;12.10;;;;;;5036160;28;20049;-86
2023/10/29 12:38:27;;;;;;;7.28;2.20;;;13.90;17.80;;;;;;5035459;28;20056;-86
2023/10/29 12:41:13;;;;;;;5.65;1.65;;;13.90;21.10;;;;;;5019225;28;20543;-87
2023/10/29 12:43:40;;;;;;;4.18;1.90;;;13.90;1.00;;;;;;5035965;28;20124;-86
2023/10/29 12:46:07;;;;;;;;;;;13.80;22.90;;;;;;5020326;28;20080;-86
2023/10/29 12:48:54;;;;;;;5.88;1.52;;;13.80;1.00;;;;;;5020309;28;19964;-86
2023/10/29 12:54:53;;;;;;;4.60;2.10;;;13.80;18.10;;;;;;5014901;28;20084;-86
2023/10/29 12:57:18;;;;;;;6.22;2.70;;;14.20;18.10;;;;;;5052464;28;20049;-86